createdAt,value
2022-11-23T00:01:24.067Z,100.00
2022-11-23T00:03:54.538Z,100.00
2022-11-23T00:06:22.919Z,100.00
2022-11-23T00:08:50.945Z,100.00
2022-11-23T00:11:19.161Z,100.00
2022-11-23T00:13:47.379Z,100.00
2022-11-23T00:16:20.026Z,100.00
2022-11-23T00:18:47.669Z,100.00
2022-11-23T00:21:21.045Z,100.00
2022-11-23T00:23:48.995Z,100.00
2022-11-23T00:26:17.132Z,100.00
2022-11-23T00:28:44.376Z,100.00
2022-11-23T00:31:14.349Z,100.00
2022-11-23T00:33:42.276Z,100.00
2022-11-23T00:36:15.417Z,100.00
2022-11-23T00:38:45.151Z,100.00
2022-11-23T00:41:19.106Z,100.00
2022-11-23T00:43:46.363Z,100.00
2022-11-23T00:46:23.111Z,100.00
2022-11-23T00:48:52.385Z,100.00
2022-11-23T00:51:21.854Z,100.00
2022-11-23T00:53:49.752Z,100.00
2022-11-23T00:56:18.426Z,100.00
2022-11-23T00:58:52.907Z,100.00
2022-11-23T01:01:29.369Z,100.00
2022-11-23T01:04:00.079Z,100.00
2022-11-23T01:06:35.593Z,100.00
2022-11-23T01:09:16.094Z,100.00
2022-11-23T01:11:43.614Z,100.00
2022-11-23T01:14:11.569Z,100.00
2022-11-23T01:16:41.440Z,100.00
2022-11-23T01:19:14.353Z,100.00
2022-11-23T01:21:41.990Z,100.00
2022-11-23T01:24:13.583Z,100.00
2022-11-23T01:26:41.455Z,100.00
2022-11-23T01:29:08.498Z,100.00
2022-11-23T01:31:43.187Z,100.00
2022-11-23T01:34:15.758Z,100.00
2022-11-23T01:36:43.533Z,100.00
2022-11-23T01:39:11.069Z,100.00
2022-11-23T01:41:41.360Z,100.00
2022-11-23T01:44:27.662Z,100.00
2022-11-23T01:46:57.907Z,100.00
2022-11-23T01:49:27.468Z,100.00
2022-11-23T01:51:57.652Z,100.00
2022-11-23T01:54:46.599Z,100.00
2022-11-23T01:57:28.145Z,100.00
2022-11-23T01:59:56.387Z,100.00
2022-11-23T02:02:25.218Z,100.00
2022-11-23T02:04:54.269Z,100.00
2022-11-23T02:07:24.358Z,100.00
2022-11-23T02:09:52.418Z,100.00
2022-11-23T02:12:19.329Z,100.00
2022-11-23T02:14:46.705Z,100.00
2022-11-23T02:17:14.156Z,100.00
2022-11-23T02:20:06.440Z,100.00
2022-11-23T02:22:58.755Z,100.00
2022-11-23T02:25:33.462Z,100.00
2022-11-23T02:28:01.656Z,100.00
2022-11-23T02:30:30.792Z,100.00
2022-11-23T02:32:57.725Z,100.00
2022-11-23T02:35:25.668Z,100.00
2022-11-23T02:37:53.628Z,100.00
2022-11-23T02:40:31.667Z,100.00
2022-11-23T02:42:59.621Z,100.00
2022-11-23T02:45:39.682Z,100.00
2022-11-23T02:48:06.796Z,100.00
2022-11-23T02:50:35.063Z,100.00
2022-11-23T02:53:02.360Z,100.00
2022-11-23T02:55:31.581Z,100.00
2022-11-23T02:58:01.025Z,100.00
2022-11-23T03:00:29.015Z,100.00
2022-11-23T03:03:00.467Z,100.00
2022-11-23T03:05:28.005Z,100.00
2022-11-23T03:07:54.878Z,100.00
2022-11-23T03:10:22.030Z,100.00
2022-11-23T03:12:55.574Z,100.00
2022-11-23T03:15:24.082Z,100.00
2022-11-23T03:17:52.689Z,100.00
2022-11-23T03:20:20.929Z,100.00
2022-11-23T03:22:50.217Z,100.00
2022-11-23T03:25:19.094Z,100.00
2022-11-23T03:27:49.572Z,100.00
2022-11-23T03:30:16.611Z,100.00
2022-11-23T03:32:43.943Z,100.00
2022-11-23T03:35:11.092Z,100.00
2022-11-23T03:37:53.987Z,100.00
2022-11-23T03:40:21.033Z,100.00
2022-11-23T03:43:14.560Z,100.00
2022-11-23T03:45:42.268Z,100.00
2022-11-23T03:48:09.388Z,100.00
2022-11-23T03:50:36.358Z,100.00
2022-11-23T03:53:03.719Z,100.00
2022-11-23T03:55:30.563Z,100.00
2022-11-23T03:57:59.862Z,100.00
2022-11-23T04:00:31.242Z,100.00
2022-11-23T04:02:58.899Z,100.00
2022-11-23T04:05:51.975Z,100.00
2022-11-23T04:08:48.110Z,100.00
2022-11-23T04:11:23.301Z,100.00
2022-11-23T04:13:51.366Z,100.00
2022-11-23T04:16:19.562Z,100.00
2022-11-23T04:18:46.826Z,100.00
2022-11-23T04:21:13.728Z,100.00
2022-11-23T04:23:40.898Z,100.00
2022-11-23T04:26:11.566Z,100.00
2022-11-23T04:28:42.187Z,100.00
2022-11-23T04:31:09.490Z,100.00
2022-11-23T04:33:52.422Z,100.00
2022-11-23T04:36:20.660Z,100.00
2022-11-23T04:38:47.888Z,100.00
2022-11-23T04:41:17.847Z,100.00
2022-11-23T04:43:45.402Z,100.00
2022-11-23T04:46:12.366Z,100.00
2022-11-23T04:48:39.644Z,100.00
2022-11-23T04:51:09.027Z,100.00
2022-11-23T04:53:38.793Z,100.00
2022-11-23T04:56:06.446Z,100.00
2022-11-23T04:58:37.704Z,100.00
2022-11-23T05:01:06.516Z,100.00
2022-11-23T05:03:39.632Z,100.00
2022-11-23T05:06:09.902Z,100.00
2022-11-23T05:08:42.550Z,100.00
2022-11-23T05:11:33.349Z,100.00
2022-11-23T05:14:03.450Z,100.00
2022-11-23T05:16:32.206Z,100.00
2022-11-23T05:18:59.328Z,100.00
2022-11-23T05:21:27.056Z,100.00
2022-11-23T05:23:55.073Z,100.00
2022-11-23T05:26:22.390Z,100.00
2022-11-23T05:28:49.614Z,100.00
2022-11-23T05:31:16.675Z,100.00
2022-11-23T05:33:46.410Z,100.00
2022-11-23T05:36:16.088Z,100.00
2022-11-23T05:38:43.291Z,100.00
2022-11-23T05:41:20.168Z,100.00
2022-11-23T05:43:50.600Z,100.00
2022-11-23T05:46:22.347Z,100.00
2022-11-23T05:48:49.295Z,100.00
2022-11-23T05:51:16.470Z,100.00
2022-11-23T05:53:45.154Z,100.00
2022-11-23T05:56:20.069Z,100.00
2022-11-23T05:59:16.413Z,100.00
2022-11-23T06:01:48.782Z,100.00
2022-11-23T06:04:23.876Z,100.00
2022-11-23T06:06:50.917Z,100.00
2022-11-23T06:09:17.823Z,100.00
2022-11-23T06:11:49.406Z,100.00
2022-11-23T06:14:21.541Z,100.00
2022-11-23T06:16:50.950Z,100.00
2022-11-23T06:19:30.716Z,100.00
2022-11-23T06:21:58.847Z,100.00
2022-11-23T06:24:29.239Z,100.00
2022-11-23T06:27:18.346Z,100.00
2022-11-23T06:29:47.859Z,100.00
2022-11-23T06:32:16.010Z,100.00
2022-11-23T06:34:43.258Z,100.00
2022-11-23T06:37:11.021Z,100.00
2022-11-23T06:39:38.152Z,100.00
2022-11-23T06:42:31.371Z,100.00
2022-11-23T06:44:54.186Z,100.00
2022-11-23T06:47:26.217Z,100.00
2022-11-23T06:49:53.636Z,100.00
2022-11-23T06:52:26.945Z,100.00
2022-11-23T06:54:54.640Z,100.00
2022-11-23T06:57:23.757Z,100.00
2022-11-23T06:59:51.343Z,100.00
2022-11-23T07:02:24.017Z,100.00
2022-11-23T07:04:52.601Z,100.00
2022-11-23T07:07:20.127Z,100.00
2022-11-23T07:09:57.403Z,100.00
2022-11-23T07:12:34.448Z,100.00
2022-11-23T07:15:01.964Z,100.00
2022-11-23T07:17:39.097Z,100.00
2022-11-23T07:20:09.118Z,100.00
2022-11-23T07:22:37.563Z,100.00
2022-11-23T07:25:05.978Z,100.00
2022-11-23T07:27:32.949Z,100.00
2022-11-23T07:30:01.915Z,100.00
2022-11-23T07:32:31.843Z,100.00
2022-11-23T07:34:59.047Z,100.00
2022-11-23T07:37:27.955Z,100.00
2022-11-23T07:39:58.139Z,100.00
2022-11-23T07:42:38.351Z,100.00
2022-11-23T07:45:10.972Z,100.00
2022-11-23T07:47:41.902Z,100.00
2022-11-23T07:50:11.267Z,100.00
2022-11-23T07:52:39.425Z,100.00
2022-11-23T07:55:06.944Z,100.00
2022-11-23T07:57:33.788Z,100.00
2022-11-23T08:00:00.687Z,100.00
2022-11-23T08:02:27.687Z,100.00
2022-11-23T08:04:55.534Z,100.00
2022-11-23T08:07:22.980Z,100.00
2022-11-23T08:09:50.518Z,100.00
2022-11-23T08:12:17.394Z,100.00
2022-11-23T08:14:44.273Z,100.00
2022-11-23T08:17:11.500Z,100.00
2022-11-23T08:19:38.579Z,100.00
2022-11-23T08:22:05.422Z,100.00
2022-11-23T08:24:32.711Z,100.00
2022-11-23T08:26:59.749Z,100.00
2022-11-23T08:29:26.632Z,100.00
2022-11-23T08:31:53.694Z,100.00
2022-11-23T08:34:20.665Z,100.00
2022-11-23T08:36:48.300Z,100.00
2022-11-23T08:39:16.447Z,100.00
2022-11-23T08:41:43.592Z,100.00
2022-11-23T08:44:11.385Z,100.00
2022-11-23T08:46:39.019Z,100.00
2022-11-23T08:49:07.351Z,100.00
2022-11-23T08:51:34.225Z,100.00
2022-11-23T08:54:01.513Z,100.00
2022-11-23T08:56:28.479Z,100.00
2022-11-23T08:58:55.563Z,100.00
2022-11-23T09:01:22.765Z,100.00
2022-11-23T09:03:50.131Z,100.00
2022-11-23T09:06:17.149Z,100.00
2022-11-23T09:08:44.085Z,100.00
2022-11-23T09:11:13.410Z,100.00
2022-11-23T09:13:40.731Z,100.00
2022-11-23T09:16:08.483Z,100.00
2022-11-23T09:18:36.721Z,100.00
2022-11-23T09:21:05.945Z,100.00
2022-11-23T09:23:33.290Z,100.00
2022-11-23T09:26:01.838Z,100.00
2022-11-23T09:28:29.224Z,100.00
2022-11-23T09:30:57.373Z,100.00
2022-11-23T09:33:25.646Z,100.00
2022-11-23T09:36:00.902Z,100.00
2022-11-23T09:38:44.802Z,100.00
2022-11-23T09:41:21.647Z,100.00
2022-11-23T09:43:51.448Z,100.00
2022-11-23T09:46:55.220Z,100.00
2022-11-23T09:49:26.652Z,100.00
2022-11-23T09:51:57.193Z,100.00
2022-11-23T09:54:38.205Z,100.00
2022-11-23T09:57:05.822Z,100.00
2022-11-23T09:59:41.966Z,100.00
2022-11-23T10:02:20.447Z,100.00
2022-11-23T10:04:47.869Z,100.00
2022-11-23T10:07:17.859Z,100.00
2022-11-23T10:10:07.042Z,100.00
2022-11-23T10:12:57.744Z,100.00
2022-11-23T10:15:32.335Z,100.00
2022-11-23T10:18:20.291Z,100.00
2022-11-23T10:20:53.891Z,100.00
2022-11-23T10:23:50.736Z,100.00
2022-11-23T10:26:20.349Z,100.00
2022-11-23T10:28:47.733Z,100.00
2022-11-23T10:31:20.130Z,100.00
2022-11-23T10:33:55.585Z,100.00
2022-11-23T10:36:23.380Z,100.00
2022-11-23T10:38:57.301Z,100.00
2022-11-23T10:41:24.711Z,100.00
2022-11-23T10:44:06.960Z,100.00
2022-11-23T10:46:34.116Z,100.00
2022-11-23T10:49:24.422Z,100.00
2022-11-23T10:51:52.670Z,100.00
2022-11-23T10:54:19.933Z,100.00
2022-11-23T10:56:49.362Z,100.00
2022-11-23T10:59:26.550Z,100.00
2022-11-23T11:02:16.186Z,100.00
2022-11-23T11:04:43.547Z,100.00
2022-11-23T11:07:22.734Z,98.05
2022-11-23T11:09:59.769Z,100.00
2022-11-23T11:12:29.401Z,100.00
2022-11-23T11:15:05.245Z,100.00
2022-11-23T11:17:39.898Z,100.00
2022-11-23T11:20:31.599Z,99.28
2022-11-23T11:23:04.691Z,99.40
2022-11-23T11:25:36.204Z,100.00
2022-11-23T11:28:07.018Z,100.00
2022-11-23T11:30:57.230Z,100.00
2022-11-23T11:33:38.115Z,96.37
2022-11-23T11:36:08.014Z,92.57
2022-11-23T11:38:37.569Z,84.38
2022-11-23T11:41:12.134Z,87.78
2022-11-23T11:43:47.181Z,89.65
2022-11-23T11:46:29.149Z,80.85
2022-11-23T11:49:33.908Z,87.41
2022-11-23T11:52:25.524Z,76.99
2022-11-23T11:55:06.856Z,86.48
2022-11-23T11:57:44.306Z,75.82
2022-11-23T12:00:17.702Z,70.11
2022-11-23T12:03:03.879Z,82.20
2022-11-23T12:05:40.311Z,97.40
2022-11-23T12:08:10.687Z,79.73
2022-11-23T12:10:59.155Z,98.16
2022-11-23T12:13:33.026Z,84.41
2022-11-23T12:16:26.415Z,72.54
2022-11-23T12:19:02.011Z,79.01
2022-11-23T12:21:54.176Z,76.87
2022-11-23T12:24:50.389Z,71.92
2022-11-23T12:27:47.971Z,73.24
2022-11-23T12:30:21.693Z,69.74
2022-11-23T12:33:00.690Z,65.00
2022-11-23T12:35:33.470Z,66.44
2022-11-23T12:38:14.270Z,82.46
2022-11-23T12:40:55.781Z,68.13
2022-11-23T12:43:33.537Z,74.91
2022-11-23T12:46:42.357Z,72.77
2022-11-23T12:49:21.589Z,80.00
2022-11-23T12:52:13.182Z,74.92
2022-11-23T12:54:49.274Z,72.47
2022-11-23T12:57:25.076Z,90.55
2022-11-23T13:00:15.117Z,70.04
2022-11-23T13:02:57.418Z,98.35
2022-11-23T13:05:33.471Z,70.06
2022-11-23T13:08:27.477Z,68.22
2022-11-23T13:10:57.534Z,76.50
2022-11-23T13:13:48.817Z,75.73
2022-11-23T13:16:25.741Z,64.77
2022-11-23T13:19:15.684Z,64.94
2022-11-23T13:21:45.018Z,64.86
2022-11-23T13:24:24.191Z,79.54
2022-11-23T13:27:29.842Z,82.00
2022-11-23T13:29:58.829Z,81.21
2022-11-23T13:32:46.129Z,80.58
2022-11-23T13:35:16.042Z,90.16
2022-11-23T13:37:58.357Z,82.90
2022-11-23T13:40:27.909Z,90.86
2022-11-23T13:42:59.807Z,92.21
2022-11-23T13:45:37.739Z,89.18
2022-11-23T13:48:04.979Z,94.02
2022-11-23T13:50:33.002Z,80.58
2022-11-23T13:53:00.663Z,93.01
2022-11-23T13:55:36.904Z,86.87
2022-11-23T13:58:25.364Z,87.63
2022-11-23T14:00:55.594Z,82.02
2022-11-23T14:03:44.395Z,87.39
2022-11-23T14:06:41.648Z,71.40
2022-11-23T14:09:08.684Z,77.02
2022-11-23T14:11:48.694Z,95.14
2022-11-23T14:14:31.661Z,96.04
2022-11-23T14:17:40.590Z,96.39
2022-11-23T14:20:16.621Z,82.30
2022-11-23T14:22:53.469Z,96.64
2022-11-23T14:25:39.030Z,93.57
2022-11-23T14:28:38.593Z,83.48
2022-11-23T14:31:43.596Z,81.27
2022-11-23T14:34:22.366Z,95.44
2022-11-23T14:37:13.880Z,96.05
2022-11-23T14:39:59.335Z,97.25
2022-11-23T14:42:29.465Z,98.07
2022-11-23T14:45:01.633Z,100.00
2022-11-23T14:47:30.843Z,99.69
2022-11-23T14:49:58.384Z,100.00
2022-11-23T14:52:31.440Z,100.00
2022-11-23T14:55:03.866Z,98.68
2022-11-23T14:57:45.991Z,96.46
2022-11-23T15:00:23.278Z,97.77
2022-11-23T15:02:52.993Z,90.33
2022-11-23T15:05:33.491Z,98.18
2022-11-23T15:08:12.833Z,100.00
2022-11-23T15:10:39.841Z,98.62
2022-11-23T15:13:22.733Z,100.00
2022-11-23T15:15:55.924Z,100.00
2022-11-23T15:18:35.284Z,100.00
2022-11-23T15:21:04.563Z,100.00
2022-11-23T15:23:40.199Z,99.99
2022-11-23T15:26:28.624Z,98.74
2022-11-23T15:29:01.022Z,99.51
2022-11-23T15:31:36.507Z,100.00
2022-11-23T15:34:11.328Z,100.00
2022-11-23T15:36:39.852Z,100.00
2022-11-23T15:39:08.758Z,100.00
2022-11-23T15:41:40.198Z,100.00
2022-11-23T15:44:24.999Z,100.00
2022-11-23T15:47:07.876Z,100.00
2022-11-23T15:49:39.431Z,100.00
2022-11-23T15:52:06.730Z,100.00
2022-11-23T15:54:38.300Z,100.00
2022-11-23T15:57:20.441Z,100.00
2022-11-23T15:59:56.234Z,100.00
2022-11-23T16:02:26.044Z,96.04
2022-11-23T16:05:14.046Z,100.00
2022-11-23T16:07:57.796Z,98.90
2022-11-23T16:10:27.920Z,85.45
2022-11-23T16:12:57.338Z,87.96
2022-11-23T16:15:40.931Z,94.08
2022-11-23T16:18:13.732Z,99.99
2022-11-23T16:20:45.442Z,100.00
2022-11-23T16:23:20.188Z,100.00
2022-11-23T16:25:54.962Z,100.00
2022-11-23T16:28:30.891Z,100.00
2022-11-23T16:30:58.641Z,90.71
2022-11-23T16:33:26.398Z,100.00
2022-11-23T16:35:54.184Z,100.00
2022-11-23T16:38:21.942Z,100.00
2022-11-23T16:40:48.829Z,99.77
2022-11-23T16:43:17.458Z,100.00
2022-11-23T16:45:48.909Z,100.00
2022-11-23T16:48:25.496Z,100.00
2022-11-23T16:50:54.588Z,100.00
2022-11-23T16:53:21.733Z,100.00
2022-11-23T16:55:53.097Z,100.00
2022-11-23T16:58:21.269Z,100.00
2022-11-23T17:00:49.309Z,100.00
2022-11-23T17:03:21.286Z,100.00
2022-11-23T17:05:48.941Z,100.00
2022-11-23T17:08:23.034Z,100.00
2022-11-23T17:10:51.833Z,100.00
2022-11-23T17:13:29.059Z,100.00
2022-11-23T17:15:56.634Z,100.00
2022-11-23T17:18:23.549Z,100.00
2022-11-23T17:20:50.492Z,100.00
2022-11-23T17:23:17.726Z,100.00
2022-11-23T17:25:44.771Z,100.00
2022-11-23T17:28:21.277Z,100.00
2022-11-23T17:30:49.207Z,100.00
2022-11-23T17:33:16.497Z,100.00
2022-11-23T17:35:43.716Z,100.00
2022-11-23T17:38:16.749Z,100.00
2022-11-23T17:40:44.167Z,100.00
2022-11-23T17:43:14.830Z,100.00
2022-11-23T17:45:43.927Z,100.00
2022-11-23T17:48:16.065Z,100.00
2022-11-23T17:50:43.037Z,100.00
2022-11-23T17:53:11.233Z,100.00
2022-11-23T17:55:38.487Z,100.00
2022-11-23T17:58:05.889Z,93.84
2022-11-23T18:00:33.357Z,100.00
2022-11-23T18:03:00.280Z,100.00
2022-11-23T18:05:27.485Z,98.66
2022-11-23T18:07:54.677Z,91.73
2022-11-23T18:10:22.669Z,100.00
2022-11-23T18:12:49.676Z,99.78
2022-11-23T18:15:16.945Z,100.00
2022-11-23T18:17:44.054Z,100.00
2022-11-23T18:20:11.737Z,100.00
2022-11-23T18:22:40.027Z,100.00
2022-11-23T18:25:07.537Z,100.00
2022-11-23T18:27:34.558Z,100.00
2022-11-23T18:30:01.908Z,100.00
2022-11-23T18:32:31.292Z,100.00
2022-11-23T18:34:58.205Z,100.00
2022-11-23T18:37:25.367Z,100.00
2022-11-23T18:39:52.438Z,100.00
2022-11-23T18:42:20.026Z,100.00
2022-11-23T18:44:47.173Z,100.00
2022-11-23T18:47:14.017Z,100.00
2022-11-23T18:49:40.982Z,100.00
2022-11-23T18:52:09.194Z,100.00
2022-11-23T18:54:36.443Z,100.00
2022-11-23T18:57:03.645Z,100.00
2022-11-23T19:02:18.002Z,100.00
2022-11-23T19:04:45.474Z,100.00
2022-11-23T19:07:13.418Z,100.00
2022-11-23T19:09:40.689Z,100.00
2022-11-23T19:12:08.255Z,100.00
2022-11-23T19:14:35.438Z,100.00
2022-11-23T19:17:02.833Z,100.00
2022-11-23T19:19:30.298Z,100.00
2022-11-23T19:21:57.323Z,100.00
2022-11-23T19:24:24.227Z,100.00
2022-11-23T19:26:51.195Z,100.00
2022-11-23T19:29:23.648Z,100.00
2022-11-23T19:31:54.660Z,100.00
2022-11-23T19:34:22.022Z,100.00
2022-11-23T19:36:48.937Z,100.00
2022-11-23T19:39:16.155Z,100.00
2022-11-23T19:41:43.581Z,100.00
2022-11-23T19:44:10.542Z,100.00
2022-11-23T19:46:38.195Z,100.00
2022-11-23T19:49:05.203Z,100.00
2022-11-23T19:51:32.356Z,100.00
2022-11-23T19:54:01.100Z,100.00
2022-11-23T19:56:29.470Z,100.00
2022-11-23T19:58:58.843Z,100.00
2022-11-23T20:01:28.882Z,100.00
2022-11-23T20:03:57.915Z,100.00
2022-11-23T20:06:27.121Z,100.00
2022-11-23T20:08:55.193Z,100.00
2022-11-23T20:11:22.546Z,100.00
2022-11-23T20:13:49.835Z,100.00
2022-11-23T20:16:19.564Z,100.00
2022-11-23T20:18:49.154Z,100.00
2022-11-23T20:21:18.337Z,100.00
2022-11-23T20:23:46.496Z,100.00
2022-11-23T20:26:15.853Z,100.00
2022-11-23T20:28:43.366Z,100.00
2022-11-23T20:31:20.641Z,100.00
2022-11-23T20:33:50.684Z,100.00
2022-11-23T20:36:19.702Z,100.00
2022-11-23T20:38:47.317Z,100.00
2022-11-23T20:41:15.485Z,100.00
2022-11-23T20:43:44.212Z,100.00
2022-11-23T20:46:12.083Z,100.00
2022-11-23T20:48:41.222Z,100.00
2022-11-23T20:51:10.817Z,100.00
2022-11-23T20:53:37.937Z,100.00
2022-11-23T20:56:07.909Z,100.00
2022-11-23T20:58:35.483Z,100.00
2022-11-23T21:01:14.119Z,100.00
2022-11-23T21:03:42.823Z,100.00
2022-11-23T21:06:14.106Z,100.00
2022-11-23T21:08:42.402Z,100.00
2022-11-23T21:11:41.531Z,100.00
2022-11-23T21:14:17.971Z,100.00
2022-11-23T21:16:55.796Z,100.00
2022-11-23T21:19:50.316Z,100.00
2022-11-23T21:22:19.134Z,100.00
2022-11-23T21:24:46.284Z,100.00
2022-11-23T21:27:13.729Z,100.00
2022-11-23T21:29:47.984Z,100.00
2022-11-23T21:32:15.162Z,100.00
2022-11-23T21:34:42.057Z,100.00
2022-11-23T21:37:11.739Z,100.00
2022-11-23T21:39:39.530Z,98.22
2022-11-23T21:42:07.247Z,100.00
2022-11-23T21:44:34.872Z,100.00
2022-11-23T21:47:02.586Z,99.81
2022-11-23T21:49:32.311Z,91.73
2022-11-23T21:51:59.438Z,92.82
2022-11-23T21:54:27.131Z,100.00
2022-11-23T21:56:54.448Z,100.00
2022-11-23T21:59:22.661Z,100.00
2022-11-23T22:01:49.637Z,100.00
2022-11-23T22:04:17.406Z,100.00
2022-11-23T22:06:45.579Z,100.00
2022-11-23T22:09:13.449Z,100.00
2022-11-23T22:11:42.944Z,100.00
2022-11-23T22:14:15.755Z,100.00
2022-11-23T22:16:44.756Z,100.00
2022-11-23T22:19:13.825Z,100.00
2022-11-23T22:21:42.301Z,100.00
2022-11-23T22:24:15.502Z,100.00
2022-11-23T22:26:43.422Z,100.00
2022-11-23T22:29:10.636Z,100.00
2022-11-23T22:31:38.203Z,100.00
2022-11-23T22:34:08.697Z,100.00
2022-11-23T22:36:36.177Z,100.00
2022-11-23T22:39:05.805Z,100.00
2022-11-23T22:41:37.241Z,100.00
2022-11-23T22:44:06.695Z,100.00
2022-11-23T22:46:33.718Z,100.00
2022-11-23T22:49:01.923Z,100.00
2022-11-23T22:51:29.791Z,100.00
2022-11-23T22:53:58.870Z,100.00
2022-11-23T22:56:27.184Z,100.00
2022-11-23T22:58:54.433Z,100.00
2022-11-23T23:01:23.931Z,100.00
2022-11-23T23:03:55.768Z,100.00
2022-11-23T23:06:25.414Z,100.00
2022-11-23T23:08:55.732Z,100.00
2022-11-23T23:11:23.763Z,100.00
2022-11-23T23:13:50.770Z,100.00
2022-11-23T23:16:17.743Z,100.00
2022-11-23T23:18:45.250Z,100.00
2022-11-23T23:21:15.010Z,100.00
2022-11-23T23:23:50.170Z,100.00
2022-11-23T23:26:19.337Z,100.00
2022-11-23T23:28:46.519Z,100.00
2022-11-23T23:31:16.322Z,100.00
2022-11-23T23:33:45.336Z,100.00
2022-11-23T23:36:14.757Z,100.00
2022-11-23T23:38:41.694Z,100.00
2022-11-23T23:41:10.744Z,100.00
2022-11-23T23:43:37.839Z,100.00
2022-11-23T23:46:07.732Z,100.00
2022-11-23T23:48:38.893Z,100.00
2022-11-23T23:51:20.974Z,100.00
2022-11-23T23:53:48.573Z,100.00
2022-11-23T23:56:20.549Z,100.00
2022-11-23T23:58:48.462Z,100.00
